createdAt,value
2019-02-14T00:00:35.586Z,15.10
2019-02-14T00:01:35.716Z,16.00
2019-02-14T00:02:35.839Z,18.20
2019-02-14T00:03:35.959Z,14.90
2019-02-14T00:04:36.090Z,15.00
2019-02-14T00:05:36.209Z,14.80
2019-02-14T00:06:36.324Z,13.90
2019-02-14T00:07:36.451Z,13.60
2019-02-14T00:08:36.580Z,12.80
2019-02-14T00:09:36.705Z,13.70
2019-02-14T00:10:36.831Z,13.40
2019-02-14T00:11:36.956Z,12.40
2019-02-14T00:12:37.081Z,11.80
2019-02-14T00:13:37.202Z,12.70
2019-02-14T00:14:37.332Z,14.10
2019-02-14T00:15:37.446Z,13.70
2019-02-14T00:16:37.574Z,14.00
2019-02-14T00:17:37.703Z,15.00
2019-02-14T00:18:37.827Z,13.10
2019-02-14T00:19:37.940Z,13.30
2019-02-14T00:20:38.083Z,14.40
2019-02-14T00:21:38.207Z,16.60
2019-02-14T00:22:38.332Z,14.50
2019-02-14T00:23:38.460Z,13.90
2019-02-14T00:24:38.582Z,14.00
2019-02-14T00:25:38.720Z,13.80
2019-02-14T00:26:38.839Z,13.10
2019-02-14T00:27:39.091Z,13.40
2019-02-14T00:28:39.086Z,11.70
2019-02-14T00:29:39.201Z,11.00
2019-02-14T00:30:39.329Z,11.40
2019-02-14T00:31:39.473Z,11.00
2019-02-14T00:32:39.587Z,11.10
2019-02-14T00:33:39.706Z,12.00
2019-02-14T00:34:39.834Z,10.40
2019-02-14T00:35:39.960Z,10.10
2019-02-14T00:36:40.083Z,10.70
2019-02-14T00:37:40.208Z,10.50
2019-02-14T00:38:40.332Z,12.00
2019-02-14T00:39:40.459Z,13.30
2019-02-14T00:40:40.586Z,13.10
2019-02-14T00:41:40.707Z,14.70
2019-02-14T00:42:40.833Z,13.80
2019-02-14T00:43:40.957Z,12.90
2019-02-14T00:44:41.082Z,13.00
2019-02-14T00:45:41.211Z,12.90
2019-02-14T00:46:41.343Z,14.10
2019-02-14T00:47:41.461Z,13.70
2019-02-14T00:48:41.587Z,12.50
2019-02-14T00:49:41.712Z,13.50
2019-02-14T00:50:41.838Z,14.30
2019-02-14T00:51:41.965Z,12.70
2019-02-14T00:52:42.084Z,12.60
2019-02-14T00:53:42.212Z,13.90
2019-02-14T00:54:42.334Z,12.30
2019-02-14T00:55:42.461Z,13.30
2019-02-14T00:56:42.585Z,12.00
2019-02-14T00:57:42.702Z,11.60
2019-02-14T00:58:42.825Z,13.80
2019-02-14T00:59:42.946Z,14.20
2019-02-14T01:00:43.070Z,13.60
2019-02-14T01:01:43.192Z,14.50
2019-02-14T01:02:43.315Z,12.80
2019-02-14T01:03:43.440Z,15.10
2019-02-14T01:04:43.566Z,12.30
2019-02-14T01:05:43.689Z,12.80
2019-02-14T01:06:43.813Z,13.10
2019-02-14T01:07:43.936Z,16.80
2019-02-14T01:08:44.066Z,14.10
2019-02-14T01:09:44.197Z,16.40
2019-02-14T01:10:44.314Z,16.80
2019-02-14T01:11:44.437Z,17.50
2019-02-14T01:12:44.573Z,17.10
2019-02-14T01:13:44.705Z,15.30
2019-02-14T01:14:44.829Z,15.60
2019-02-14T01:15:44.961Z,14.30
2019-02-14T01:16:45.082Z,14.60
2019-02-14T01:17:45.221Z,15.70
2019-02-14T01:18:45.341Z,15.00
2019-02-14T01:19:45.467Z,14.00
2019-02-14T01:20:45.594Z,14.20
2019-02-14T01:21:45.720Z,14.50
2019-02-14T01:22:45.847Z,13.60
2019-02-14T01:23:45.986Z,13.50
2019-02-14T01:24:46.105Z,13.30
2019-02-14T01:25:46.224Z,14.00
2019-02-14T01:26:46.347Z,14.10
2019-02-14T01:27:46.473Z,13.30
2019-02-14T01:28:46.601Z,12.50
2019-02-14T01:29:46.738Z,12.20
2019-02-14T01:30:46.850Z,12.50
2019-02-14T01:31:46.992Z,13.60
2019-02-14T01:32:47.102Z,11.80
2019-02-14T01:33:47.232Z,11.60
2019-02-14T01:34:47.350Z,12.10
2019-02-14T01:35:47.478Z,12.70
2019-02-14T01:36:47.593Z,13.50
2019-02-14T01:37:48.271Z,11.80
2019-02-14T01:38:47.846Z,13.20
2019-02-14T01:39:47.970Z,12.60
2019-02-14T01:40:48.093Z,14.30
2019-02-14T01:41:48.225Z,13.70
2019-02-14T01:42:48.347Z,14.20
2019-02-14T01:43:48.483Z,14.30
2019-02-14T01:44:48.594Z,13.80
2019-02-14T01:45:48.721Z,14.50
2019-02-14T01:46:48.864Z,13.90
2019-02-14T01:47:48.972Z,14.20
2019-02-14T01:48:49.089Z,15.60
2019-02-14T01:49:49.217Z,13.10
2019-02-14T01:50:49.340Z,13.00
2019-02-14T01:51:49.462Z,11.80
2019-02-14T01:52:49.592Z,12.80
2019-02-14T01:53:49.709Z,14.40
2019-02-14T01:54:49.845Z,11.30
2019-02-14T01:55:49.951Z,13.40
2019-02-14T01:56:50.082Z,12.00
2019-02-14T01:57:50.207Z,13.10
2019-02-14T01:58:50.333Z,12.50
2019-02-14T01:59:50.454Z,12.70
2019-02-14T02:00:50.575Z,12.40
2019-02-14T02:01:50.701Z,12.20
2019-02-14T02:02:50.826Z,13.10
2019-02-14T02:03:50.946Z,13.40
2019-02-14T02:04:51.069Z,13.90
2019-02-14T02:05:51.220Z,14.40
2019-02-14T02:06:51.330Z,14.00
2019-02-14T02:07:51.459Z,15.40
2019-02-14T02:08:51.572Z,13.60
2019-02-14T02:09:51.698Z,13.80
2019-02-14T02:10:51.831Z,12.90
2019-02-14T02:11:51.953Z,14.40
2019-02-14T02:12:52.081Z,16.00
2019-02-14T02:13:52.205Z,13.80
2019-02-14T02:14:52.325Z,16.20
2019-02-14T02:15:52.450Z,14.60
2019-02-14T02:16:52.587Z,14.80
2019-02-14T02:17:52.696Z,13.80
2019-02-14T02:18:52.818Z,12.90
2019-02-14T02:19:52.948Z,14.20
2019-02-14T02:20:53.065Z,14.50
2019-02-14T02:21:53.187Z,12.70
2019-02-14T02:22:53.310Z,13.00
2019-02-14T02:23:53.431Z,13.90
2019-02-14T02:24:53.555Z,14.00
2019-02-14T02:25:53.689Z,14.00
2019-02-14T02:26:53.815Z,13.50
2019-02-14T02:27:53.936Z,14.70
2019-02-14T02:28:54.063Z,13.70
2019-02-14T02:29:54.183Z,12.40
2019-02-14T02:30:54.311Z,13.90
2019-02-14T02:31:54.444Z,12.60
2019-02-14T02:32:54.568Z,14.80
2019-02-14T02:33:54.739Z,13.60
2019-02-14T02:34:54.814Z,13.30
2019-02-14T02:36:00.464Z,11.40
2019-02-14T02:36:55.054Z,13.40
2019-02-14T02:37:55.180Z,11.90
2019-02-14T02:38:55.364Z,15.00
2019-02-14T02:39:55.488Z,12.80
2019-02-14T02:40:55.610Z,12.90
2019-02-14T02:41:55.738Z,14.20
2019-02-14T02:42:55.876Z,13.70
2019-02-14T02:43:55.997Z,13.00
2019-02-14T02:44:56.110Z,15.10
2019-02-14T02:45:56.238Z,15.00
2019-02-14T02:46:56.374Z,13.60
2019-02-14T02:47:56.494Z,12.70
2019-02-14T02:48:56.622Z,14.10
2019-02-14T02:49:56.741Z,11.30
2019-02-14T02:50:56.866Z,12.60
2019-02-14T02:51:56.992Z,11.80
2019-02-14T02:52:57.127Z,10.40
2019-02-14T02:53:57.242Z,11.60
2019-02-14T02:54:57.369Z,11.20
2019-02-14T02:55:57.489Z,11.70
2019-02-14T02:56:57.616Z,11.40
2019-02-14T02:57:57.735Z,11.10
2019-02-14T02:58:57.854Z,11.50
2019-02-14T02:59:57.982Z,10.70
2019-02-14T03:00:58.110Z,11.50
2019-02-14T03:01:58.234Z,10.90
2019-02-14T03:02:58.352Z,11.70
2019-02-14T03:03:58.476Z,11.60
2019-02-14T03:04:58.599Z,13.50
2019-02-14T03:05:58.719Z,13.50
2019-02-14T03:06:58.847Z,16.20
2019-02-14T03:07:58.974Z,13.80
2019-02-14T03:08:59.105Z,15.30
2019-02-14T03:09:59.227Z,13.50
2019-02-14T03:10:59.351Z,14.70
2019-02-14T03:11:59.477Z,14.50
2019-02-14T03:12:59.602Z,13.30
2019-02-14T03:13:59.721Z,14.50
2019-02-14T03:14:59.848Z,13.00
2019-02-14T03:15:59.975Z,12.70
2019-02-14T03:17:00.095Z,14.50
2019-02-14T03:18:00.222Z,12.90
2019-02-14T03:19:00.349Z,14.90
2019-02-14T03:20:00.478Z,13.70
2019-02-14T03:21:00.598Z,15.10
2019-02-14T03:22:00.716Z,13.90
2019-02-14T03:23:00.840Z,14.20
2019-02-14T03:24:00.965Z,13.50
2019-02-14T03:25:01.088Z,13.40
2019-02-14T03:26:01.211Z,14.80
2019-02-14T03:27:01.337Z,12.70
2019-02-14T03:28:01.458Z,11.60
2019-02-14T03:29:01.586Z,13.40
2019-02-14T03:30:01.707Z,14.60
2019-02-14T03:31:01.861Z,15.40
2019-02-14T03:32:01.975Z,14.30
2019-02-14T03:33:02.095Z,12.40
2019-02-14T03:34:02.216Z,14.60
2019-02-14T03:35:02.339Z,14.80
2019-02-14T03:36:02.464Z,11.90
2019-02-14T03:37:02.586Z,13.00
2019-02-14T03:38:02.712Z,14.30
2019-02-14T03:39:02.837Z,12.90
2019-02-14T03:40:02.960Z,15.70
2019-02-14T03:41:03.084Z,13.10
2019-02-14T03:42:03.207Z,12.10
2019-02-14T03:43:03.339Z,14.80
2019-02-14T03:44:03.459Z,14.20
2019-02-14T03:45:03.588Z,14.80
2019-02-14T03:46:03.710Z,12.90
2019-02-14T03:47:03.840Z,14.10
2019-02-14T03:48:03.965Z,11.90
2019-02-14T03:49:04.095Z,14.20
2019-02-14T03:50:04.219Z,13.50
2019-02-14T03:51:04.342Z,14.50
2019-02-14T03:52:04.466Z,15.00
2019-02-14T03:53:04.597Z,15.50
2019-02-14T03:54:04.728Z,15.50
2019-02-14T03:55:04.849Z,14.40
2019-02-14T03:56:04.986Z,15.00
2019-02-14T03:57:05.115Z,15.90
2019-02-14T03:58:05.227Z,13.40
2019-02-14T03:59:05.375Z,13.80
2019-02-14T04:00:05.503Z,12.80
2019-02-14T04:01:05.632Z,14.20
2019-02-14T04:02:05.751Z,14.10
2019-02-14T04:03:05.948Z,13.40
2019-02-14T04:04:05.941Z,16.10
2019-02-14T04:05:06.067Z,13.20
2019-02-14T04:06:06.180Z,11.80
2019-02-14T04:07:06.305Z,14.80
2019-02-14T04:08:06.430Z,14.20
2019-02-14T04:09:06.559Z,14.10
2019-02-14T04:10:06.684Z,15.00
2019-02-14T04:11:06.859Z,12.60
2019-02-14T04:12:06.931Z,15.40
2019-02-14T04:13:07.060Z,13.60
2019-02-14T04:14:07.182Z,13.60
2019-02-14T04:15:07.304Z,15.00
2019-02-14T04:16:07.435Z,14.50
2019-02-14T04:17:07.558Z,13.90
2019-02-14T04:18:07.681Z,13.30
2019-02-14T04:19:07.805Z,13.60
2019-02-14T04:20:07.929Z,13.70
2019-02-14T04:21:08.051Z,14.40
2019-02-14T04:22:08.182Z,11.20
2019-02-14T04:23:08.301Z,16.30
2019-02-14T04:24:08.427Z,14.10
2019-02-14T04:25:08.547Z,15.10
2019-02-14T04:26:08.685Z,12.90
2019-02-14T04:27:08.797Z,14.80
2019-02-14T04:28:08.924Z,13.90
2019-02-14T04:29:09.043Z,15.30
2019-02-14T04:30:09.183Z,15.30
2019-02-14T04:31:09.299Z,13.00
2019-02-14T04:32:09.427Z,13.00
2019-02-14T04:33:09.550Z,13.40
2019-02-14T04:34:09.670Z,13.60
2019-02-14T04:35:09.801Z,15.60
2019-02-14T04:36:09.918Z,14.70
2019-02-14T04:37:10.050Z,13.00
2019-02-14T04:38:10.171Z,14.80
2019-02-14T04:39:10.303Z,12.10
2019-02-14T04:40:10.420Z,14.60
2019-02-14T04:41:10.549Z,14.40
2019-02-14T04:42:10.684Z,13.80
2019-02-14T04:43:10.798Z,12.40
2019-02-14T04:44:10.915Z,12.30
2019-02-14T04:45:11.047Z,14.60
2019-02-14T04:46:11.164Z,15.10
2019-02-14T04:47:11.285Z,15.00
2019-02-14T04:48:11.412Z,14.30
2019-02-14T04:49:11.557Z,13.50
2019-02-14T04:50:11.662Z,12.80
2019-02-14T04:51:11.788Z,12.20
2019-02-14T04:52:11.915Z,13.90
2019-02-14T04:53:12.037Z,14.10
2019-02-14T04:54:12.164Z,14.00
2019-02-14T04:55:12.290Z,13.80
2019-02-14T04:56:12.422Z,14.80
2019-02-14T04:57:12.546Z,14.30
2019-02-14T04:58:12.667Z,12.50
2019-02-14T04:59:12.803Z,13.50
2019-02-14T05:00:12.922Z,12.60
2019-02-14T05:01:13.040Z,14.30
2019-02-14T05:02:13.166Z,12.30
2019-02-14T05:03:13.286Z,14.10
2019-02-14T05:04:13.422Z,16.10
2019-02-14T05:05:13.537Z,15.30
2019-02-14T05:06:13.658Z,13.80
2019-02-14T05:07:13.783Z,15.30
2019-02-14T05:08:13.910Z,15.90
2019-02-14T05:09:14.038Z,13.50
2019-02-14T05:10:14.161Z,12.70
2019-02-14T05:11:14.290Z,14.30
2019-02-14T05:12:14.414Z,14.80
2019-02-14T05:13:14.535Z,15.00
2019-02-14T05:14:14.663Z,18.90
2019-02-14T05:15:14.789Z,13.20
2019-02-14T05:16:14.917Z,16.10
2019-02-14T05:17:15.037Z,14.20
2019-02-14T05:18:15.180Z,13.20
2019-02-14T05:19:15.291Z,12.90
2019-02-14T05:20:15.415Z,15.60
2019-02-14T05:21:15.533Z,15.40
2019-02-14T05:22:15.671Z,14.70
2019-02-14T05:23:15.788Z,15.70
2019-02-14T05:24:15.909Z,15.60
2019-02-14T05:25:16.031Z,14.90
2019-02-14T05:26:16.153Z,15.10
2019-02-14T05:27:16.274Z,15.00
2019-02-14T05:28:16.417Z,15.80
2019-02-14T05:29:16.527Z,15.10
2019-02-14T05:30:16.649Z,12.60
2019-02-14T05:31:16.770Z,13.30
2019-02-14T05:32:16.896Z,14.00
2019-02-14T05:33:17.012Z,14.60
2019-02-14T05:34:17.138Z,16.60
2019-02-14T05:35:17.263Z,13.90
2019-02-14T05:36:17.385Z,15.70
2019-02-14T05:37:17.502Z,17.10
2019-02-14T05:38:17.629Z,13.60
2019-02-14T05:39:17.752Z,14.30
2019-02-14T05:40:17.877Z,14.20
2019-02-14T05:41:18.008Z,13.30
2019-02-14T05:42:18.124Z,13.50
2019-02-14T05:43:18.252Z,13.90
2019-02-14T05:44:18.374Z,19.10
2019-02-14T05:45:18.519Z,15.70
2019-02-14T05:46:18.630Z,16.60
2019-02-14T05:47:18.749Z,16.70
2019-02-14T05:48:18.872Z,16.80
2019-02-14T05:49:18.998Z,16.80
2019-02-14T05:50:19.120Z,18.70
2019-02-14T05:51:19.245Z,16.80
2019-02-14T05:52:19.367Z,17.50
2019-02-14T05:53:19.493Z,17.20
2019-02-14T05:54:19.618Z,16.40
2019-02-14T05:55:19.746Z,17.00
2019-02-14T05:56:19.878Z,16.70
2019-02-14T05:57:19.995Z,17.00
2019-02-14T05:58:20.129Z,15.10
2019-02-14T05:59:20.249Z,15.80
2019-02-14T06:00:20.437Z,15.70
2019-02-14T06:01:20.518Z,18.40
2019-02-14T06:02:21.130Z,16.00
2019-02-14T06:03:20.795Z,16.10
2019-02-14T06:04:20.914Z,15.40
2019-02-14T06:05:21.030Z,16.70
2019-02-14T06:06:21.157Z,13.20
2019-02-14T06:07:21.284Z,16.10
2019-02-14T06:08:21.413Z,14.70
2019-02-14T06:09:21.542Z,15.20
2019-02-14T06:10:21.667Z,13.10
2019-02-14T06:11:21.784Z,14.10
2019-02-14T06:12:21.921Z,14.10
2019-02-14T06:13:22.033Z,14.70
2019-02-14T06:14:22.155Z,14.40
2019-02-14T06:15:22.272Z,13.60
2019-02-14T06:16:23.398Z,14.80
2019-02-14T06:17:22.524Z,15.20
2019-02-14T06:18:22.647Z,14.20
2019-02-14T06:19:22.765Z,14.00
2019-02-14T06:20:22.890Z,14.20
2019-02-14T06:21:23.016Z,16.30
2019-02-14T06:22:23.146Z,14.10
2019-02-14T06:23:23.267Z,15.50
2019-02-14T06:24:23.388Z,15.50
2019-02-14T06:25:23.515Z,15.20
2019-02-14T06:26:23.637Z,16.40
2019-02-14T06:27:23.771Z,13.90
2019-02-14T06:28:23.893Z,15.30
2019-02-14T06:29:24.022Z,14.80
2019-02-14T06:30:24.141Z,16.10
2019-02-14T06:31:24.266Z,17.60
2019-02-14T06:32:24.391Z,15.00
2019-02-14T06:33:24.515Z,15.40
2019-02-14T06:34:24.639Z,15.20
2019-02-14T06:35:24.762Z,16.10
2019-02-14T06:36:24.885Z,15.10
2019-02-14T06:37:25.014Z,16.70
2019-02-14T06:38:25.139Z,15.40
2019-02-14T06:39:25.258Z,16.00
2019-02-14T06:40:25.385Z,17.90
2019-02-14T06:41:25.507Z,16.60
2019-02-14T06:42:25.631Z,15.60
2019-02-14T06:43:25.758Z,16.90
2019-02-14T06:44:25.884Z,14.40
2019-02-14T06:45:26.010Z,16.10
2019-02-14T06:46:26.133Z,14.90
2019-02-14T06:47:26.264Z,18.00
2019-02-14T06:48:26.386Z,15.30
2019-02-14T06:49:26.515Z,15.30
2019-02-14T06:50:34.439Z,16.80
2019-02-14T06:51:26.746Z,19.80
2019-02-14T06:52:26.872Z,18.60
2019-02-14T06:53:26.993Z,18.50
2019-02-14T06:54:27.119Z,18.90
2019-02-14T06:55:27.259Z,16.40
2019-02-14T06:56:27.367Z,18.70
2019-02-14T06:57:27.488Z,17.40
2019-02-14T06:58:27.610Z,19.70
2019-02-14T06:59:27.735Z,19.60
2019-02-14T07:00:27.860Z,23.70
2019-02-14T07:01:27.984Z,21.50
2019-02-14T07:02:28.112Z,20.90
2019-02-14T07:03:28.241Z,20.60
2019-02-14T07:04:28.363Z,22.90
2019-02-14T07:05:28.487Z,18.50
2019-02-14T07:06:28.613Z,22.30
2019-02-14T07:07:28.736Z,19.50
2019-02-14T07:08:28.866Z,19.50
2019-02-14T07:09:28.995Z,20.20
2019-02-14T07:10:29.118Z,23.60
2019-02-14T07:11:29.232Z,21.00
2019-02-14T07:12:29.383Z,19.90
2019-02-14T07:13:29.481Z,18.80
2019-02-14T07:14:29.605Z,17.80
2019-02-14T07:15:29.732Z,16.60
2019-02-14T07:16:29.858Z,15.40
2019-02-14T07:17:29.981Z,16.20
2019-02-14T07:18:30.103Z,17.90
2019-02-14T07:19:30.227Z,16.90
2019-02-14T07:20:30.353Z,18.30
2019-02-14T07:21:30.476Z,19.20
2019-02-14T07:22:30.597Z,18.60
2019-02-14T07:23:30.716Z,17.00
2019-02-14T07:24:30.850Z,19.90
2019-02-14T07:25:30.970Z,16.20
2019-02-14T07:26:31.092Z,16.00
2019-02-14T07:27:31.213Z,14.60
2019-02-14T07:28:31.336Z,16.30
2019-02-14T07:29:31.455Z,16.10
2019-02-14T07:30:31.578Z,16.70
2019-02-14T07:31:31.708Z,16.60
2019-02-14T07:32:31.824Z,17.20
2019-02-14T07:33:31.950Z,15.60
2019-02-14T07:34:32.072Z,15.60
2019-02-14T07:35:32.198Z,20.60
2019-02-14T07:36:32.327Z,19.80
2019-02-14T07:37:32.445Z,18.10
2019-02-14T07:38:32.564Z,17.10
2019-02-14T07:39:32.700Z,18.90
2019-02-14T07:40:32.816Z,18.70
2019-02-14T07:41:32.942Z,18.10
2019-02-14T07:42:33.065Z,18.40
2019-02-14T07:43:33.204Z,15.70
2019-02-14T07:44:33.330Z,14.70
2019-02-14T07:45:33.449Z,16.50
2019-02-14T07:46:33.578Z,18.60
2019-02-14T07:47:33.697Z,17.40
2019-02-14T07:48:33.821Z,16.20
2019-02-14T07:49:33.951Z,15.50
2019-02-14T07:50:34.071Z,16.60
2019-02-14T07:51:34.200Z,14.70
2019-02-14T07:52:34.329Z,17.10
2019-02-14T07:53:34.452Z,13.50
2019-02-14T07:54:34.570Z,12.40
2019-02-14T07:55:34.708Z,12.70
2019-02-14T07:56:34.832Z,12.90
2019-02-14T07:57:34.959Z,12.70
2019-02-14T07:58:35.083Z,12.40
2019-02-14T07:59:35.216Z,12.70
2019-02-14T08:00:35.346Z,11.90
2019-02-14T08:01:35.467Z,12.60
2019-02-14T08:02:35.591Z,15.40
2019-02-14T08:03:35.716Z,13.70
2019-02-14T08:04:35.834Z,15.80
2019-02-14T08:05:35.956Z,15.70
2019-02-14T08:06:36.076Z,18.50
2019-02-14T08:07:36.377Z,15.50
2019-02-14T08:08:36.327Z,16.00
2019-02-14T08:09:36.452Z,18.00
2019-02-14T08:10:36.575Z,18.70
2019-02-14T08:11:36.701Z,14.80
2019-02-14T08:12:36.825Z,18.40
2019-02-14T08:13:36.955Z,15.60
2019-02-14T08:14:37.079Z,15.20
2019-02-14T08:15:37.213Z,20.80
2019-02-14T08:16:37.339Z,18.60
2019-02-14T08:17:37.459Z,18.60
2019-02-14T08:18:37.585Z,19.90
2019-02-14T08:19:37.710Z,14.50
2019-02-14T08:20:37.845Z,17.20
2019-02-14T08:21:37.971Z,17.20
2019-02-14T08:22:38.096Z,14.70
2019-02-14T08:23:38.213Z,14.70
2019-02-14T08:24:38.340Z,12.50
2019-02-14T08:25:38.465Z,14.00
2019-02-14T08:26:38.596Z,13.20
2019-02-14T08:27:38.720Z,13.30
2019-02-14T08:28:38.840Z,14.90
2019-02-14T08:29:38.970Z,14.10
2019-02-14T08:30:39.091Z,14.90
2019-02-14T08:31:39.221Z,14.00
2019-02-14T08:32:39.349Z,17.10
2019-02-14T08:33:39.474Z,13.80
2019-02-14T08:34:39.601Z,12.50
2019-02-14T08:35:39.729Z,13.10
2019-02-14T08:36:39.855Z,13.50
2019-02-14T08:37:45.394Z,13.50
2019-02-14T08:38:40.125Z,11.80
2019-02-14T08:39:40.247Z,12.90
2019-02-14T08:40:40.374Z,15.70
2019-02-14T08:41:40.495Z,17.50
2019-02-14T08:42:40.618Z,16.70
2019-02-14T08:43:40.740Z,18.40
2019-02-14T08:44:40.869Z,17.10
2019-02-14T08:45:40.999Z,17.50
2019-02-14T08:46:41.123Z,19.60
2019-02-14T08:47:41.244Z,19.70
2019-02-14T08:48:41.375Z,21.20
2019-02-14T08:49:41.511Z,22.80
2019-02-14T08:50:41.635Z,22.30
2019-02-14T08:51:41.760Z,19.10
2019-02-14T08:52:41.882Z,18.70
2019-02-14T08:53:42.012Z,19.60
2019-02-14T08:54:42.135Z,19.60
2019-02-14T08:55:42.260Z,18.90
2019-02-14T08:56:42.399Z,19.80
2019-02-14T08:57:42.507Z,18.70
2019-02-14T08:58:42.640Z,19.10
2019-02-14T08:59:42.762Z,19.00
2019-02-14T09:00:42.889Z,15.50
2019-02-14T09:01:43.019Z,18.70
2019-02-14T09:02:43.138Z,18.50
2019-02-14T09:03:43.268Z,16.90
2019-02-14T09:04:43.389Z,17.40
2019-02-14T09:05:43.520Z,16.00
2019-02-14T09:06:43.637Z,16.00
2019-02-14T09:07:43.764Z,18.00
2019-02-14T09:08:43.891Z,16.60
2019-02-14T09:09:44.023Z,18.30
2019-02-14T09:10:44.162Z,18.10
2019-02-14T09:11:44.271Z,15.30
2019-02-14T09:12:44.397Z,16.50
2019-02-14T09:13:44.520Z,18.10
2019-02-14T09:14:44.649Z,14.80
2019-02-14T09:15:44.778Z,14.40
2019-02-14T09:16:44.896Z,15.20
2019-02-14T09:17:45.025Z,17.00
2019-02-14T09:18:45.162Z,15.70
2019-02-14T09:19:45.274Z,14.60
2019-02-14T09:20:45.395Z,14.20
2019-02-14T09:21:45.522Z,15.60
2019-02-14T09:22:45.653Z,13.90
2019-02-14T09:23:45.773Z,13.80
2019-02-14T09:24:45.899Z,15.80
2019-02-14T09:25:46.030Z,14.10
2019-02-14T09:26:46.161Z,14.70
2019-02-14T09:27:46.292Z,14.30
2019-02-14T09:28:46.416Z,13.30
2019-02-14T09:29:46.549Z,15.90
2019-02-14T09:30:46.670Z,15.60
2019-02-14T09:31:46.798Z,14.20
2019-02-14T09:32:46.923Z,16.40
2019-02-14T09:33:47.057Z,15.20
2019-02-14T09:34:47.188Z,13.10
2019-02-14T09:35:47.318Z,13.70
2019-02-14T09:36:47.430Z,13.50
2019-02-14T09:37:47.556Z,13.30
2019-02-14T09:38:47.696Z,13.40
2019-02-14T09:39:47.812Z,12.80
2019-02-14T09:40:47.954Z,13.90
2019-02-14T09:41:48.059Z,13.90
2019-02-14T09:42:48.193Z,14.50
2019-02-14T09:43:48.323Z,15.20
2019-02-14T09:44:48.450Z,13.90
2019-02-14T09:45:48.591Z,14.20
2019-02-14T09:46:48.698Z,19.20
2019-02-14T09:47:48.831Z,19.50
2019-02-14T09:48:48.952Z,15.80
2019-02-14T09:49:49.085Z,14.70
2019-02-14T09:50:49.202Z,18.10
2019-02-14T09:51:49.337Z,14.00
2019-02-14T09:52:49.483Z,14.40
2019-02-14T09:53:49.592Z,14.00
2019-02-14T09:54:49.715Z,15.50
2019-02-14T09:55:49.857Z,15.40
2019-02-14T09:56:49.983Z,12.40
2019-02-14T09:57:50.115Z,13.10
2019-02-14T09:58:50.286Z,12.80
2019-02-14T09:59:50.351Z,12.20
2019-02-14T10:00:50.479Z,13.70
2019-02-14T10:01:50.605Z,16.10
2019-02-14T10:02:50.726Z,14.90
2019-02-14T10:03:50.880Z,13.00
2019-02-14T10:04:50.974Z,13.70
2019-02-14T10:05:51.102Z,12.90
2019-02-14T10:06:51.227Z,15.80
2019-02-14T10:07:51.361Z,11.00
2019-02-14T10:08:51.484Z,14.50
2019-02-14T10:09:51.612Z,12.40
2019-02-14T10:10:51.730Z,12.70
2019-02-14T10:11:51.901Z,14.90
2019-02-14T10:12:52.004Z,11.00
2019-02-14T10:13:52.133Z,13.60
2019-02-14T10:14:52.249Z,12.00
2019-02-14T10:15:52.384Z,12.50
2019-02-14T10:16:52.509Z,14.50
2019-02-14T10:17:52.631Z,14.20
2019-02-14T10:18:52.767Z,13.50
2019-02-14T10:19:53.622Z,13.00
2019-02-14T10:20:52.972Z,12.20
2019-02-14T10:21:53.102Z,10.70
2019-02-14T10:22:53.229Z,12.10
2019-02-14T10:23:53.361Z,12.60
2019-02-14T10:24:53.484Z,10.90
2019-02-14T10:25:53.611Z,11.20
2019-02-14T10:26:53.737Z,13.80
2019-02-14T10:27:53.864Z,14.90
2019-02-14T10:28:53.989Z,13.10
2019-02-14T10:29:54.116Z,11.80
2019-02-14T10:30:54.250Z,12.40
2019-02-14T10:31:54.372Z,11.40
2019-02-14T10:32:54.515Z,11.60
2019-02-14T10:33:54.641Z,11.80
2019-02-14T10:34:54.769Z,11.70
2019-02-14T10:35:54.893Z,10.70
2019-02-14T10:36:55.028Z,12.20
2019-02-14T10:37:55.156Z,11.20
2019-02-14T10:38:55.292Z,12.80
2019-02-14T10:39:55.417Z,13.80
2019-02-14T10:40:55.551Z,12.20
2019-02-14T10:41:55.675Z,12.50
2019-02-14T10:42:55.808Z,13.60
2019-02-14T10:43:55.949Z,13.50
2019-02-14T10:44:56.084Z,13.40
2019-02-14T10:45:56.317Z,12.40
2019-02-14T10:46:56.379Z,13.90
2019-02-14T10:47:56.504Z,12.70
2019-02-14T10:48:56.632Z,11.50
2019-02-14T10:49:56.766Z,12.80
2019-02-14T10:50:56.897Z,12.40
2019-02-14T10:51:57.029Z,12.50
2019-02-14T10:52:57.162Z,13.40
2019-02-14T10:53:57.299Z,13.20
2019-02-14T10:54:57.424Z,13.80
2019-02-14T10:55:57.556Z,14.10
2019-02-14T10:56:57.689Z,12.00
2019-02-14T10:57:57.821Z,14.00
2019-02-14T10:58:59.113Z,11.90
2019-02-14T10:59:58.085Z,12.80
2019-02-14T11:00:58.217Z,13.60
2019-02-14T11:01:58.339Z,13.00
2019-02-14T11:02:58.479Z,14.50
2019-02-14T11:03:58.604Z,12.60
2019-02-14T11:04:58.731Z,14.40
2019-02-14T11:05:58.869Z,12.20
2019-02-14T11:06:58.994Z,13.20
2019-02-14T11:07:59.125Z,12.70
2019-02-14T11:08:59.261Z,14.00
2019-02-14T11:09:59.398Z,14.10
2019-02-14T11:10:59.543Z,12.40
2019-02-14T11:11:59.675Z,14.80
2019-02-14T11:12:59.793Z,13.90
2019-02-14T11:13:59.918Z,13.80
2019-02-14T11:15:00.106Z,14.20
2019-02-14T11:16:00.186Z,14.80
2019-02-14T11:17:00.310Z,15.00
2019-02-14T11:18:00.452Z,13.40
2019-02-14T11:19:00.576Z,14.90
2019-02-14T11:20:00.695Z,13.30
2019-02-14T11:21:00.860Z,13.10
2019-02-14T11:22:00.993Z,13.80
2019-02-14T11:23:01.120Z,17.10
2019-02-14T11:24:01.240Z,12.50
2019-02-14T11:25:01.385Z,12.50
2019-02-14T11:26:01.518Z,13.40
2019-02-14T11:27:01.645Z,12.00
2019-02-14T11:28:01.765Z,13.20
2019-02-14T11:29:01.900Z,12.00
2019-02-14T11:30:02.033Z,12.60
2019-02-14T11:31:02.170Z,11.30
2019-02-14T11:32:02.296Z,12.30
2019-02-14T11:33:02.443Z,12.90
2019-02-14T11:34:02.619Z,12.40
2019-02-14T11:35:02.691Z,12.60
2019-02-14T11:36:02.825Z,12.60
2019-02-14T11:37:02.958Z,11.90
2019-02-14T11:38:03.095Z,11.50
2019-02-14T11:39:03.230Z,13.00
2019-02-14T11:40:03.367Z,10.70
2019-02-14T11:41:03.510Z,11.00
2019-02-14T11:42:03.637Z,13.90
2019-02-14T11:43:03.774Z,11.90
2019-02-14T11:44:03.909Z,12.80
2019-02-14T11:45:04.038Z,11.80
2019-02-14T11:46:04.173Z,11.20
2019-02-14T11:47:04.308Z,9.30
2019-02-14T11:48:04.448Z,8.80
2019-02-14T11:49:04.570Z,11.10
2019-02-14T11:50:06.557Z,10.00
2019-02-14T11:51:04.848Z,9.50
2019-02-14T11:52:04.989Z,9.60
2019-02-14T11:53:13.891Z,8.60
2019-02-14T11:54:05.253Z,7.30
2019-02-14T11:55:05.410Z,7.90
2019-02-14T11:56:05.549Z,8.30
2019-02-14T11:57:05.686Z,11.10
2019-02-14T11:58:05.838Z,9.40
2019-02-14T11:59:05.977Z,7.80
2019-02-14T12:00:06.108Z,6.50
2019-02-14T12:01:06.247Z,6.40
2019-02-14T12:02:06.388Z,7.10
2019-02-14T12:03:06.533Z,9.20
2019-02-14T12:04:06.679Z,6.80
2019-02-14T12:05:06.823Z,8.80
2019-02-14T12:06:06.970Z,11.10
2019-02-14T12:07:07.110Z,9.30
2019-02-14T12:08:09.364Z,8.80
2019-02-14T12:09:07.381Z,9.60
2019-02-14T12:10:13.502Z,9.70
2019-02-14T12:11:07.675Z,9.60
2019-02-14T12:12:07.810Z,10.90
2019-02-14T12:13:07.946Z,11.30
2019-02-14T12:14:08.081Z,10.10
2019-02-14T12:15:08.226Z,8.40
2019-02-14T12:16:08.367Z,8.90
2019-02-14T12:17:08.518Z,8.20
2019-02-14T12:18:08.657Z,10.60
2019-02-14T12:19:08.805Z,8.10
2019-02-14T12:20:12.461Z,8.00
2019-02-14T12:21:09.093Z,7.40
2019-02-14T12:22:09.235Z,12.10
2019-02-14T12:23:09.382Z,8.50
2019-02-14T12:24:09.526Z,7.30
2019-02-14T12:25:09.655Z,8.80
2019-02-14T12:26:09.805Z,8.30
2019-02-14T12:27:09.935Z,7.60
2019-02-14T12:28:10.073Z,12.70
2019-02-14T12:29:10.223Z,7.40
2019-02-14T12:30:10.363Z,7.70
2019-02-14T12:31:10.495Z,8.00
2019-02-14T12:32:10.659Z,8.30
2019-02-14T12:33:10.798Z,9.00
2019-02-14T12:34:10.939Z,8.50
2019-02-14T12:35:11.098Z,9.20
2019-02-14T12:36:11.239Z,9.30
2019-02-14T12:37:11.371Z,9.50
2019-02-14T12:38:11.509Z,8.70
2019-02-14T12:39:11.844Z,8.80
2019-02-14T12:40:11.793Z,9.30
2019-02-14T12:41:11.937Z,10.50
2019-02-14T12:42:12.082Z,8.70
2019-02-14T12:43:12.247Z,9.50
2019-02-14T12:44:12.357Z,8.20
2019-02-14T12:46:12.642Z,8.10
2019-02-14T12:47:12.801Z,8.50
2019-02-14T12:48:12.924Z,9.30
2019-02-14T12:49:13.059Z,10.90
2019-02-14T12:50:13.200Z,7.60
2019-02-14T12:51:13.340Z,7.00
2019-02-14T12:52:13.474Z,8.50
2019-02-14T12:53:13.615Z,9.50
2019-02-14T12:54:13.763Z,8.40
2019-02-14T12:55:13.908Z,7.10
2019-02-14T12:56:14.024Z,10.70
2019-02-14T12:57:14.184Z,8.40